Maryville, IL (62062)

6:16 AM CDT on July 04, 2015 (GMT -0500)
Rolling Meadows Dr | | Change Station
CLOSE
Current Station
Personal Weather Station
Location: Maryville, IL
Elevation: 568 ft
Nearby Weather Stations
Active Advisory: Flood Warning

Elev 568 ft 38.72 °N, 89.97 °W | Updated 2 seconds ago

Partly Cloudy
Partly Cloudy
65.7 °F
Feels Like 65.7 °F
N
1.6
Wind Variable Wind from NE
Gusts 2.5 mph

Today
High -- | Low -- °F
--% Chance of Precip.
Yesterday
High -- | Low -- °F
Precip. -- in
5:40 AM 8:28 PM
Waning Gibbous, 93% visible
Pressure 29.98 in
Visibility 0.2 miles
Clouds
Dew Point 64 °F
Humidity 93%
Rainfall 0.00 in
Snow Depth Not available.
UV 0.0 out of 12
Pollen 3.60 out of 12
Air Quality Not available.
Flu Activity Not available.
METAR KALN 041055Z AUTO 00000KT 1/4SM FG VV002 16/16 A2998 RMK AO2 T01600160

More Conditions Fewer Conditions

Pressure 29.98 in
Visibility 0.2 miles
Clouds
Dew Point 64 °F
Humidity 93%
Rainfall 0.00 in
Snow Depth Not available.
UV 0.0 out of 12
Pollen 3.60 out of 12
Air Quality Not available.
Flu Activity Not available.
METAR KALN 041055Z AUTO 00000KT 1/4SM FG VV002 16/16 A2998 RMK AO2 T01600160

More Conditions Fewer Conditions

10-Day Weather Forecast

×

Almanac

Astronomy

Jul. 04, 2015 Rise Set
Actual Time
Civil Twilight
Nautical Twilight
Astronomical Twilight
Moon
Length of Visible Light
Length of Day
Tomorrow will be .
, % of the Moon is Illuminated

Today's Extremes

State Highs State Lows

Community

WunderPhotos

Upload Photos

1,834,939 photos uploaded!

WunderBlogs® & News

Nearby

Air Quality

  Air Quality AQ Index Pollutant
Not available.

Snow Depth

Station Depth Elevation

Earthquake Activity

City Distance Mag. Time & Date
Minimum magnitude displayed is 2.5.

Coastal Water Temperatures

Place Temperature

Stations

Nearby Weather Stations

Station Location Temp. Windchill Dew Point Humidity Wind Precip. Elev Updated Type
                   
Flood Warning
Statement as of 9:42 PM CDT on July 03, 2015

The Flood Warning continues for
the Mississippi River at mel price lock & dam.
* At 9 PM Friday the stage was 30.6 feet.
* Flood stage is 21.0 feet.
* Moderate flooding is occurring.
* Forecast: the river will fall below flood stage by Thursday evening.

                   Fld latest 7 a.M. Forecast
location stg obs stg 07/04 07/05 07/06 07/07 07/08

Mississippi River
mel price lock 21.0 30.61 30.2 29.2 27.7 25.7 23.6




Lat... Lon 3891 9033 3895 9028 3883 9003 3881 9017
      3886 9017